Terminal Aerodrome Forecast
Issued by NWS King Salmon, AK

Home | Current Version | Previous Version | Text Only | Print | Product List | Glossary On
Versions: 1 2 3 4 5 6 7 8 9 10 11 12 13 14
000
FTAK31 PANC 302341
TAFAKN
TAF
PAKN 302341Z 3100/3124 34006KT P6SM SCT020
      TEMPO 3100/3102 OVC020
     FM311400 03015KT P6SM VCSH BKN050 OVC120
     FM311800 03015KT 6SM -SN OVC025
     FM312300 10015KT 5SM -SN BR OVC020=

USA.gov is the U.S. government's official web portal to all federal, state and local government web resources and services.